Pagina principale
METAR-TAF:

METAR-TAF

Aeroporti :

Aeroporto di Dubrovnik

Ragusa, Croazia

latitudine: 42-34N, longitudine: 018-16E, altezza: 157 m

Osservazione

Il bollettino è stato emesso 38 minuti fa, alle 06:00 UTC
Vento 6 kt da nord-est, variando fra nord e est
Temperature 10°C
Umidità 53%
Pressione 1024 hPa
Visibilità: 2000 m
Parzialmente coperto da nebbia

METAR: LDDU 210600Z 05006KT 360V080 9999 2000E PRFG NSC 10/01 Q1024 BECMG FM0630 CAVOK

Ora: 07:38 (06:38 UTC)

Previsione

Il bollettino è stato emesso 1 ora e 13 minuti fa, alle 05:25 UTC
Previsione valida dal 21 alle 06 UTC al 22 alle 06 UTC
Vento 6 kt da est
Visibilità 10 km o più
nessuna nube inferiore a 1500 m e nessun cumulonembo
Evoluzione graduale
dal 21 alle 09 UTC al 21 alle 11 UTC
Vento 8 kt da ovest
Evoluzione graduale
dal 21 alle 17 UTC al 21 alle 19 UTC
Vento 7 kt da nord-est

TAF: LDDU 210525Z 2106/2206 08006KT CAVOK TX15/2112Z TN07/2203Z BECMG 2109/2111 26008KT BECMG 2117/2119 05007KT

Osservazioni e previsioni meteorologiche di più di 4000 aeroporti (messaggi METAR e TAF).

Le stazioni disponibili sono rappresentate dai dischi gialli e rossi sulla carta.

Puntare il mouse per vedere il nome della stazione.

Clicca sopra per visualizzare le osservazioni e previsioni meteorologiche.

Per cambiare la mappa : fare clic sui pulsanti verdi con una croce nera per ingrandire, il pulsante verde con un trattino per diminuire, o sulla freccia verde per le mappe adiacenti.


METAR-TAF: